createdAt,value
2022-08-30T00:01:14.231Z,4.60
2022-08-30T00:03:46.159Z,6.10
2022-08-30T00:06:15.841Z,4.83
2022-08-30T00:08:43.953Z,4.73
2022-08-30T00:11:14.247Z,5.40
2022-08-30T00:13:44.539Z,5.10
2022-08-30T00:16:12.599Z,5.37
2022-08-30T00:18:40.581Z,5.20
2022-08-30T00:21:09.008Z,4.47
2022-08-30T00:23:37.106Z,4.87
2022-08-30T00:26:05.477Z,3.60
2022-08-30T00:28:33.960Z,4.47
2022-08-30T00:31:02.535Z,5.93
2022-08-30T00:33:30.256Z,4.30
2022-08-30T00:35:57.715Z,5.53
2022-08-30T00:38:25.086Z,4.10
2022-08-30T00:40:53.122Z,5.00
2022-08-30T00:43:24.369Z,4.40
2022-08-30T00:45:55.290Z,5.33
2022-08-30T00:48:23.145Z,5.00
2022-08-30T00:51:02.367Z,5.97
2022-08-30T00:53:33.168Z,4.27
2022-08-30T00:56:01.401Z,5.43
2022-08-30T00:58:32.910Z,4.73
2022-08-30T01:01:01.450Z,5.53
2022-08-30T01:03:29.874Z,4.33
2022-08-30T01:05:57.489Z,6.50
2022-08-30T01:08:25.196Z,5.00
2022-08-30T01:10:53.674Z,5.30
2022-08-30T01:13:22.661Z,4.80
2022-08-30T01:15:50.918Z,5.80
2022-08-30T01:18:20.011Z,5.67
2022-08-30T01:20:52.585Z,4.67
2022-08-30T01:23:21.045Z,5.17
2022-08-30T01:25:50.277Z,4.80
2022-08-30T01:28:26.113Z,5.83
2022-08-30T01:30:54.281Z,5.47
2022-08-30T01:33:22.687Z,6.20
2022-08-30T01:35:56.442Z,5.73
2022-08-30T01:38:27.707Z,5.20
2022-08-30T01:41:12.539Z,4.97
2022-08-30T01:43:40.262Z,5.03
2022-08-30T01:46:08.161Z,5.90
2022-08-30T01:48:35.537Z,5.40
2022-08-30T01:51:03.134Z,5.17
2022-08-30T01:53:30.748Z,5.93
2022-08-30T01:55:58.317Z,6.00
2022-08-30T01:58:25.734Z,6.20
2022-08-30T02:00:53.315Z,5.67
2022-08-30T02:03:20.751Z,5.87
2022-08-30T02:05:48.371Z,4.90
2022-08-30T02:08:16.097Z,5.77
2022-08-30T02:10:43.516Z,6.33
2022-08-30T02:13:10.863Z,5.93
2022-08-30T02:15:41.655Z,5.27
2022-08-30T02:18:10.788Z,5.33
2022-08-30T02:20:39.889Z,6.20
2022-08-30T02:23:07.305Z,4.37
2022-08-30T02:25:34.849Z,5.47
2022-08-30T02:28:02.298Z,6.27
2022-08-30T02:30:29.687Z,4.90
2022-08-30T02:32:57.273Z,5.67
2022-08-30T02:35:24.629Z,5.43
2022-08-30T02:37:52.473Z,5.20
2022-08-30T02:40:22.085Z,5.33
2022-08-30T02:42:49.833Z,6.20
2022-08-30T02:45:17.264Z,5.47
2022-08-30T02:47:47.213Z,5.20
2022-08-30T02:50:15.239Z,5.03
2022-08-30T02:52:43.097Z,5.50
2022-08-30T02:55:16.640Z,4.37
2022-08-30T02:57:44.583Z,5.50
2022-08-30T03:00:15.185Z,6.20
2022-08-30T03:02:42.567Z,6.23
2022-08-30T03:05:12.995Z,5.20
2022-08-30T03:07:41.172Z,4.93
2022-08-30T03:10:09.304Z,4.73
2022-08-30T03:12:36.714Z,5.20
2022-08-30T03:15:05.932Z,5.70
2022-08-30T03:17:33.320Z,6.33
2022-08-30T03:20:02.220Z,6.13
2022-08-30T03:22:30.002Z,5.73
2022-08-30T03:25:01.621Z,6.50
2022-08-30T03:27:29.681Z,5.40
2022-08-30T03:29:57.176Z,5.27
2022-08-30T03:32:24.639Z,5.77
2022-08-30T03:34:51.952Z,5.40
2022-08-30T03:37:23.297Z,6.13
2022-08-30T03:39:53.304Z,6.37
2022-08-30T03:42:20.642Z,5.63
2022-08-30T03:44:50.508Z,5.67
2022-08-30T03:47:17.826Z,4.80
2022-08-30T03:49:45.242Z,5.27
2022-08-30T03:52:12.582Z,5.20
2022-08-30T03:54:40.391Z,5.07
2022-08-30T03:57:07.723Z,5.50
2022-08-30T03:59:38.905Z,6.47
2022-08-30T04:02:06.924Z,5.10
2022-08-30T04:04:34.289Z,5.27
2022-08-30T04:07:01.683Z,5.30
2022-08-30T04:09:28.965Z,7.30
2022-08-30T04:11:56.321Z,6.63
2022-08-30T04:14:23.738Z,6.03
2022-08-30T04:16:51.326Z,5.43
2022-08-30T04:19:18.783Z,6.10
2022-08-30T04:21:46.150Z,6.30
2022-08-30T04:24:13.856Z,6.40
2022-08-30T04:26:41.238Z,7.70
2022-08-30T04:29:11.588Z,6.87
2022-08-30T04:31:39.066Z,6.00
2022-08-30T04:34:06.422Z,5.37
2022-08-30T04:36:33.739Z,6.03
2022-08-30T04:39:01.108Z,7.70
2022-08-30T04:41:28.454Z,6.30
2022-08-30T04:43:55.881Z,6.30
2022-08-30T04:46:23.206Z,6.20
2022-08-30T04:48:50.616Z,5.33
2022-08-30T04:51:19.340Z,5.87
2022-08-30T04:53:46.877Z,5.40
2022-08-30T04:56:17.672Z,6.37
2022-08-30T04:58:46.986Z,6.10
2022-08-30T05:01:19.884Z,5.07
2022-08-30T05:03:48.682Z,6.73
2022-08-30T05:06:16.512Z,6.00
2022-08-30T05:08:46.006Z,6.23
2022-08-30T05:11:15.453Z,7.07
2022-08-30T05:13:43.754Z,6.33
2022-08-30T05:16:13.297Z,6.30
2022-08-30T05:18:40.648Z,7.80
2022-08-30T05:21:11.562Z,7.00
2022-08-30T05:23:40.225Z,7.30
2022-08-30T05:26:32.342Z,6.73
2022-08-30T05:29:00.354Z,5.97
2022-08-30T05:31:35.752Z,6.23
2022-08-30T05:34:04.221Z,6.03
2022-08-30T05:36:35.415Z,6.13
2022-08-30T05:39:02.421Z,6.37
2022-08-30T05:41:33.132Z,5.60
2022-08-30T05:44:03.756Z,6.23
2022-08-30T05:49:07.174Z,4.83
2022-08-30T05:51:42.867Z,5.97
2022-08-30T05:54:12.534Z,5.13
2022-08-30T05:56:42.221Z,5.27
2022-08-30T05:59:09.933Z,6.17
2022-08-30T06:01:44.426Z,6.07
2022-08-30T06:04:13.908Z,5.37
2022-08-30T06:06:43.269Z,5.70
2022-08-30T06:09:13.386Z,4.97
2022-08-30T06:11:40.837Z,6.33
2022-08-30T06:14:08.391Z,5.63
2022-08-30T06:16:38.964Z,4.50
2022-08-30T06:19:08.549Z,5.83
2022-08-30T06:21:38.002Z,5.00
2022-08-30T06:24:08.688Z,4.97
2022-08-30T06:26:45.144Z,5.80
2022-08-30T06:29:17.561Z,5.90
2022-08-30T06:31:45.174Z,5.40
2022-08-30T06:34:12.249Z,4.80
2022-08-30T06:36:39.828Z,5.10
2022-08-30T06:39:07.682Z,4.93
2022-08-30T06:41:37.305Z,6.23
2022-08-30T06:44:12.076Z,6.00
2022-08-30T06:46:39.424Z,5.53
2022-08-30T06:49:07.767Z,6.30
2022-08-30T06:51:39.982Z,5.10
2022-08-30T06:54:10.873Z,5.03
2022-08-30T06:56:42.457Z,4.80
2022-08-30T06:59:16.428Z,4.60
2022-08-30T07:01:43.750Z,5.37
2022-08-30T07:04:10.749Z,5.00
2022-08-30T07:06:37.657Z,5.00
2022-08-30T07:09:04.670Z,4.37
2022-08-30T07:11:36.640Z,4.47
2022-08-30T07:14:04.899Z,4.57
2022-08-30T07:16:32.787Z,4.80
2022-08-30T07:19:00.439Z,4.17
2022-08-30T07:21:34.841Z,4.77
2022-08-30T07:24:03.356Z,4.07
2022-08-30T07:26:37.938Z,4.17
2022-08-30T07:29:06.109Z,4.60
2022-08-30T07:31:34.703Z,4.60
2022-08-30T07:34:05.470Z,3.97
2022-08-30T07:36:33.297Z,3.73
2022-08-30T07:39:00.238Z,4.00
2022-08-30T07:41:35.662Z,4.40
2022-08-30T07:44:03.211Z,4.63
2022-08-30T07:46:30.401Z,4.13
2022-08-30T07:49:00.234Z,3.83
2022-08-30T07:51:29.451Z,3.70
2022-08-30T07:53:57.286Z,4.20
2022-08-30T07:56:25.563Z,4.00
2022-08-30T07:58:53.360Z,3.90
2022-08-30T08:01:21.828Z,4.20
2022-08-30T08:03:50.339Z,3.20
2022-08-30T08:06:20.312Z,3.70
2022-08-30T08:08:47.389Z,3.47
2022-08-30T08:11:27.576Z,4.47
2022-08-30T08:13:57.621Z,4.03
2022-08-30T08:16:28.959Z,4.00
2022-08-30T08:18:56.938Z,4.63
2022-08-30T08:21:25.485Z,3.67
2022-08-30T08:23:52.669Z,3.53
2022-08-30T08:26:21.034Z,4.63
2022-08-30T08:28:48.203Z,4.40
2022-08-30T08:31:31.387Z,4.23
2022-08-30T08:34:02.964Z,4.17
2022-08-30T08:36:31.316Z,4.23
2022-08-30T08:38:59.373Z,4.50
2022-08-30T08:41:41.939Z,4.20
2022-08-30T08:44:35.515Z,4.27
2022-08-30T08:47:11.629Z,4.07
2022-08-30T08:49:45.867Z,4.30
2022-08-30T08:53:10.816Z,4.20
2022-08-30T08:55:49.800Z,4.50
2022-08-30T08:58:43.836Z,5.03
2022-08-30T09:01:15.363Z,4.10
2022-08-30T09:03:43.200Z,4.40
2022-08-30T09:06:22.654Z,3.70
2022-08-30T09:08:50.584Z,4.50
2022-08-30T09:11:26.385Z,4.43
2022-08-30T09:13:54.693Z,3.70
2022-08-30T09:16:52.764Z,3.97
2022-08-30T09:19:52.720Z,3.80
2022-08-30T09:22:34.748Z,3.90
2022-08-30T09:25:32.372Z,4.47
2022-08-30T09:28:12.932Z,4.63
2022-08-30T09:30:40.649Z,4.73
2022-08-30T09:33:20.048Z,4.03
2022-08-30T09:35:54.457Z,4.03
2022-08-30T09:38:35.769Z,3.93
2022-08-30T09:41:50.070Z,4.00
2022-08-30T09:44:27.937Z,4.60
2022-08-30T09:46:57.815Z,4.10
2022-08-30T09:49:30.248Z,3.80
2022-08-30T09:52:24.544Z,3.83
2022-08-30T09:55:33.307Z,3.83
2022-08-30T09:58:08.236Z,3.73
2022-08-30T10:00:45.386Z,4.20
2022-08-30T10:03:36.314Z,3.80
2022-08-30T10:06:33.811Z,4.50
2022-08-30T10:09:24.268Z,3.20
2022-08-30T10:12:38.696Z,4.03
2022-08-30T10:15:26.681Z,4.00
2022-08-30T10:18:24.149Z,3.90
2022-08-30T10:20:58.025Z,3.90
2022-08-30T10:23:57.080Z,4.03
2022-08-30T10:26:30.520Z,4.00
2022-08-30T10:29:06.823Z,3.80
2022-08-30T10:31:46.264Z,3.73
2022-08-30T10:34:31.364Z,4.00
2022-08-30T10:37:16.571Z,4.13
2022-08-30T10:39:48.436Z,4.70
2022-08-30T10:42:24.608Z,3.50
2022-08-30T10:44:57.438Z,3.90
2022-08-30T10:47:40.704Z,4.10
2022-08-30T10:50:29.689Z,3.50
2022-08-30T10:53:24.642Z,3.60
2022-08-30T10:56:10.590Z,4.10
2022-08-30T10:58:41.820Z,3.90
2022-08-30T11:01:32.397Z,4.53
2022-08-30T11:04:30.583Z,3.83
2022-08-30T11:07:10.848Z,4.57
2022-08-30T11:10:16.266Z,4.40
2022-08-30T11:13:05.934Z,4.30
2022-08-30T11:15:37.818Z,3.70
2022-08-30T11:18:12.183Z,3.63
2022-08-30T11:20:47.254Z,4.30
2022-08-30T11:23:33.300Z,4.00
2022-08-30T11:26:06.400Z,4.97
2022-08-30T11:28:37.784Z,3.73
2022-08-30T11:31:06.722Z,3.77
2022-08-30T11:33:50.460Z,3.20
2022-08-30T11:36:37.529Z,4.60
2022-08-30T11:39:10.159Z,4.10
2022-08-30T11:41:42.070Z,4.20
2022-08-30T11:44:22.847Z,4.60
2022-08-30T11:46:55.051Z,3.93
2022-08-30T11:49:23.422Z,3.70
2022-08-30T11:52:27.445Z,3.60
2022-08-30T11:55:01.733Z,4.10
2022-08-30T11:58:00.323Z,5.57
2022-08-30T12:00:30.253Z,3.67
2022-08-30T12:03:07.069Z,3.50
2022-08-30T12:05:40.793Z,4.00
2022-08-30T12:08:09.890Z,3.57
2022-08-30T12:10:43.521Z,4.10
2022-08-30T12:13:32.457Z,4.70
2022-08-30T12:16:23.294Z,4.60
2022-08-30T12:19:00.880Z,3.53
2022-08-30T12:21:41.048Z,4.03
2022-08-30T12:24:19.020Z,4.60
2022-08-30T12:26:48.391Z,4.43
2022-08-30T12:29:21.033Z,4.20
2022-08-30T12:31:54.213Z,3.80
2022-08-30T12:34:36.761Z,4.60
2022-08-30T12:37:23.261Z,4.73
2022-08-30T12:40:11.272Z,4.70
2022-08-30T12:42:48.822Z,4.57
2022-08-30T12:45:21.019Z,4.80
2022-08-30T12:48:00.548Z,4.27
2022-08-30T12:50:37.870Z,4.77
2022-08-30T12:53:13.957Z,3.80
2022-08-30T12:55:59.964Z,3.70
2022-08-30T12:58:43.417Z,4.40
2022-08-30T13:01:31.301Z,4.77
2022-08-30T13:04:20.272Z,3.73
2022-08-30T13:06:55.688Z,4.93
2022-08-30T13:09:40.824Z,4.53
2022-08-30T13:12:22.574Z,4.70
2022-08-30T13:14:52.417Z,4.63
2022-08-30T13:17:21.410Z,4.63
2022-08-30T13:20:07.734Z,4.53
2022-08-30T13:22:37.534Z,4.67
2022-08-30T13:25:06.531Z,4.83
2022-08-30T13:27:36.717Z,5.57
2022-08-30T13:30:16.224Z,4.60
2022-08-30T13:32:45.019Z,4.03
2022-08-30T13:35:13.007Z,4.60
2022-08-30T13:37:49.465Z,4.30
2022-08-30T13:40:19.901Z,5.20
2022-08-30T13:42:47.631Z,4.10
2022-08-30T13:48:03.964Z,4.73
2022-08-30T13:50:31.619Z,4.43
2022-08-30T13:52:59.052Z,4.77
2022-08-30T13:55:26.407Z,5.00
2022-08-30T13:57:56.653Z,4.53
2022-08-30T14:00:26.133Z,5.93
2022-08-30T14:02:56.136Z,5.10
2022-08-30T14:05:48.155Z,5.20
2022-08-30T14:11:09.202Z,4.70
2022-08-30T14:13:36.950Z,5.07
2022-08-30T14:18:55.557Z,4.20
2022-08-30T14:21:24.771Z,4.93
2022-08-30T14:23:53.530Z,4.57
2022-08-30T14:26:24.416Z,5.60
2022-08-30T14:28:53.563Z,4.83
2022-08-30T14:31:21.043Z,4.73
2022-08-30T14:33:48.762Z,4.43
2022-08-30T14:36:16.980Z,5.00
2022-08-30T14:38:44.849Z,4.53
2022-08-30T14:41:12.261Z,4.67
2022-08-30T14:43:40.442Z,4.63
2022-08-30T14:46:09.014Z,4.00
2022-08-30T14:48:38.464Z,4.77
2022-08-30T14:51:20.815Z,4.10
2022-08-30T14:53:50.771Z,4.40
2022-08-30T14:56:19.949Z,4.27
2022-08-30T14:58:54.666Z,4.70
2022-08-30T15:01:22.589Z,4.93
2022-08-30T15:03:51.097Z,4.97
2022-08-30T15:06:19.017Z,4.57
2022-08-30T15:08:48.426Z,4.57
2022-08-30T15:11:18.318Z,5.23
2022-08-30T15:13:46.232Z,5.00
2022-08-30T15:16:15.526Z,4.20
2022-08-30T15:18:43.077Z,5.10
2022-08-30T15:21:11.210Z,5.00
2022-08-30T15:23:39.306Z,5.33
2022-08-30T15:26:08.110Z,5.20
2022-08-30T15:28:36.940Z,5.03
2022-08-30T15:31:08.788Z,4.50
2022-08-30T15:33:37.661Z,4.60
2022-08-30T15:36:06.675Z,4.50
2022-08-30T15:38:35.090Z,4.30
2022-08-30T15:41:06.746Z,4.00
2022-08-30T15:43:34.820Z,4.07
2022-08-30T15:46:18.735Z,4.43
2022-08-30T15:48:47.045Z,4.87
2022-08-30T15:51:16.737Z,4.03
2022-08-30T15:53:45.641Z,4.87
2022-08-30T15:56:13.625Z,4.00
2022-08-30T15:58:41.733Z,4.90
2022-08-30T16:01:09.762Z,4.67
2022-08-30T16:03:40.335Z,4.87
2022-08-30T16:06:19.537Z,4.73
2022-08-30T16:08:47.188Z,4.37
2022-08-30T16:11:16.876Z,4.27
2022-08-30T16:13:49.557Z,4.90
2022-08-30T16:16:19.608Z,4.10
2022-08-30T16:18:54.123Z,4.53
2022-08-30T16:21:24.753Z,4.67
2022-08-30T16:23:53.923Z,5.17
2022-08-30T16:26:21.925Z,3.97
2022-08-30T16:28:49.689Z,4.50
2022-08-30T16:31:17.852Z,4.10
2022-08-30T16:33:45.780Z,3.83
2022-08-30T16:36:13.995Z,4.40
2022-08-30T16:38:41.725Z,4.20
2022-08-30T16:41:11.660Z,4.17
2022-08-30T16:43:39.756Z,3.53
2022-08-30T16:46:11.247Z,4.20
2022-08-30T16:48:39.725Z,4.03
2022-08-30T16:51:14.754Z,3.90
2022-08-30T16:53:42.468Z,3.83
2022-08-30T16:56:15.959Z,3.67
2022-08-30T16:58:44.721Z,3.90
2022-08-30T17:01:13.363Z,3.60
2022-08-30T17:03:41.270Z,4.03
2022-08-30T17:06:09.002Z,3.40
2022-08-30T17:08:36.406Z,3.80
2022-08-30T17:11:04.346Z,4.00
2022-08-30T17:13:33.232Z,4.63
2022-08-30T17:16:00.674Z,3.70
2022-08-30T17:18:29.321Z,3.90
2022-08-30T17:20:56.778Z,3.90
2022-08-30T17:23:24.219Z,3.40
2022-08-30T17:25:51.649Z,4.53
2022-08-30T17:28:21.955Z,3.67
2022-08-30T17:30:49.742Z,3.40
2022-08-30T17:33:18.752Z,3.40
2022-08-30T17:35:46.241Z,4.23
2022-08-30T17:38:14.240Z,3.50
2022-08-30T17:40:41.817Z,3.10
2022-08-30T17:43:09.639Z,2.83
2022-08-30T17:45:37.478Z,3.50
2022-08-30T17:48:07.028Z,4.47
2022-08-30T17:50:36.049Z,4.33
2022-08-30T17:53:03.478Z,4.00
2022-08-30T17:55:30.977Z,3.10
2022-08-30T17:58:00.554Z,2.97
2022-08-30T18:00:28.281Z,3.33
2022-08-30T18:02:57.656Z,3.73
2022-08-30T18:05:25.404Z,4.20
2022-08-30T18:07:53.122Z,3.67
2022-08-30T18:10:28.586Z,3.27
2022-08-30T18:13:07.832Z,3.83
2022-08-30T18:15:36.156Z,3.10
2022-08-30T18:18:06.458Z,3.43
2022-08-30T18:20:33.829Z,3.50
2022-08-30T18:23:02.115Z,2.87
2022-08-30T18:25:29.529Z,3.13
2022-08-30T18:27:57.262Z,4.23
2022-08-30T18:30:33.175Z,2.77
2022-08-30T18:33:01.526Z,3.23
2022-08-30T18:35:28.863Z,2.80
2022-08-30T18:37:56.277Z,3.60
2022-08-30T18:40:23.635Z,3.10
2022-08-30T18:42:51.691Z,3.13
2022-08-30T18:45:19.043Z,2.67
2022-08-30T18:47:46.413Z,3.33
2022-08-30T18:50:13.962Z,3.10
2022-08-30T18:52:41.400Z,3.10
2022-08-30T18:55:12.602Z,3.03
2022-08-30T18:57:40.041Z,3.70
2022-08-30T19:00:09.616Z,3.23
2022-08-30T19:02:37.688Z,3.03
2022-08-30T19:05:05.796Z,3.33
2022-08-30T19:07:36.875Z,2.63
2022-08-30T19:10:06.883Z,3.80
2022-08-30T19:12:34.318Z,2.80
2022-08-30T19:15:01.922Z,3.60
2022-08-30T19:17:39.740Z,2.70
2022-08-30T19:20:09.851Z,3.03
2022-08-30T19:22:50.424Z,2.90
2022-08-30T19:25:25.520Z,3.10
2022-08-30T19:27:52.900Z,2.90
2022-08-30T19:30:29.318Z,3.47
2022-08-30T19:32:57.393Z,3.50
2022-08-30T19:35:25.290Z,3.27
2022-08-30T19:37:52.724Z,3.57
2022-08-30T19:40:20.967Z,3.30
2022-08-30T19:42:49.117Z,3.30
2022-08-30T19:45:21.508Z,2.63
2022-08-30T19:47:49.463Z,3.00
2022-08-30T19:50:17.712Z,3.43
2022-08-30T19:52:52.755Z,3.13
2022-08-30T19:55:24.238Z,2.90
2022-08-30T19:57:56.247Z,3.57
2022-08-30T20:00:23.956Z,3.80
2022-08-30T20:02:52.105Z,3.00
2022-08-30T20:05:21.423Z,2.90
2022-08-30T20:07:51.145Z,3.30
2022-08-30T20:10:20.570Z,3.10
2022-08-30T20:12:50.310Z,2.80
2022-08-30T20:15:18.577Z,3.20
2022-08-30T20:18:03.363Z,3.17
2022-08-30T20:20:36.665Z,3.57
2022-08-30T20:23:05.273Z,3.30
2022-08-30T20:25:33.276Z,3.37
2022-08-30T20:28:01.312Z,2.30
2022-08-30T20:30:28.646Z,3.93
2022-08-30T20:32:57.225Z,3.03
2022-08-30T20:35:24.617Z,3.37
2022-08-30T20:37:51.997Z,3.10
2022-08-30T20:40:20.617Z,2.60
2022-08-30T20:42:48.456Z,3.27
2022-08-30T20:45:17.330Z,4.10
2022-08-30T20:47:44.951Z,3.50
2022-08-30T20:50:16.728Z,3.07
2022-08-30T20:52:44.790Z,3.20
2022-08-30T20:55:13.216Z,3.80
2022-08-30T20:57:40.686Z,4.07
2022-08-30T21:00:13.692Z,3.33
2022-08-30T21:02:46.686Z,2.77
2022-08-30T21:05:17.055Z,3.07
2022-08-30T21:07:45.785Z,3.10
2022-08-30T21:10:14.038Z,4.10
2022-08-30T21:12:42.768Z,3.73
2022-08-30T21:15:26.807Z,3.17
2022-08-30T21:17:58.276Z,3.20
2022-08-30T21:20:25.743Z,3.43
2022-08-30T21:22:53.310Z,3.37
2022-08-30T21:25:20.607Z,3.50
2022-08-30T21:27:47.960Z,3.20
2022-08-30T21:30:15.878Z,3.27
2022-08-30T21:32:43.313Z,3.33
2022-08-30T21:35:29.462Z,3.40
2022-08-30T21:37:56.846Z,3.30
2022-08-30T21:40:24.325Z,3.03
2022-08-30T21:42:52.222Z,3.40
2022-08-30T21:45:19.726Z,3.07
2022-08-30T21:47:47.298Z,2.90
2022-08-30T21:50:14.725Z,3.60
2022-08-30T21:52:42.036Z,3.97
2022-08-30T21:55:09.619Z,3.60
2022-08-30T21:57:36.980Z,4.40
2022-08-30T22:00:08.548Z,3.10
2022-08-30T22:02:35.878Z,3.60
2022-08-30T22:05:03.384Z,3.63
2022-08-30T22:07:30.710Z,4.27
2022-08-30T22:09:59.150Z,3.50
2022-08-30T22:12:26.939Z,3.57
2022-08-30T22:14:54.581Z,3.90
2022-08-30T22:17:21.916Z,3.57
2022-08-30T22:19:49.331Z,3.30
2022-08-30T22:22:16.656Z,3.30
2022-08-30T22:24:43.988Z,3.57
2022-08-30T22:27:11.441Z,3.87
2022-08-30T22:29:39.318Z,4.23
2022-08-30T22:32:06.917Z,3.60
2022-08-30T22:34:34.291Z,3.10
2022-08-30T22:37:01.710Z,3.70
2022-08-30T22:39:29.140Z,3.37
2022-08-30T22:41:56.557Z,4.47
2022-08-30T22:44:24.028Z,3.70
2022-08-30T22:46:51.544Z,3.37
2022-08-30T22:49:18.908Z,3.60
2022-08-30T22:51:46.287Z,4.13
2022-08-30T22:54:13.657Z,3.40
2022-08-30T22:56:41.538Z,4.37
2022-08-30T22:59:08.970Z,3.77
2022-08-30T23:01:39.134Z,3.77
2022-08-30T23:04:08.092Z,3.33
2022-08-30T23:06:35.795Z,4.63
2022-08-30T23:09:04.139Z,3.30
2022-08-30T23:11:33.064Z,3.10
2022-08-30T23:14:02.147Z,3.63
2022-08-30T23:16:29.822Z,2.97
2022-08-30T23:18:57.229Z,3.30
2022-08-30T23:21:27.216Z,3.67
2022-08-30T23:24:13.899Z,3.40
2022-08-30T23:27:00.829Z,3.20
2022-08-30T23:29:49.414Z,4.73
2022-08-30T23:32:35.400Z,4.20
2022-08-30T23:35:25.381Z,3.93
2022-08-30T23:38:17.293Z,4.33
2022-08-30T23:41:03.391Z,3.97
2022-08-30T23:43:49.261Z,3.67
2022-08-30T23:46:35.410Z,3.63
2022-08-30T23:49:21.787Z,3.80
2022-08-30T23:52:07.555Z,4.43
2022-08-30T23:54:54.948Z,4.00
2022-08-30T23:57:44.169Z,4.40
